createdAt,value
2023-10-06T00:02:53.423Z,15.00
2023-10-06T00:07:59.032Z,14.99
2023-10-06T00:13:06.636Z,14.99
2023-10-06T00:18:13.986Z,15.00
2023-10-06T00:23:23.621Z,15.09
2023-10-06T00:28:29.423Z,15.16
2023-10-06T00:33:35.679Z,15.21
2023-10-06T00:38:52.901Z,15.27
2023-10-06T00:43:57.139Z,15.25
2023-10-06T00:49:06.187Z,15.18
2023-10-06T00:54:09.419Z,15.09
2023-10-06T00:59:14.497Z,15.01
2023-10-06T01:04:19.819Z,14.94
2023-10-06T01:09:31.952Z,14.85
2023-10-06T01:14:38.496Z,14.79
2023-10-06T01:19:49.911Z,14.77
2023-10-06T01:24:55.755Z,14.78
2023-10-06T01:30:19.461Z,14.75
2023-10-06T01:35:26.007Z,14.68
2023-10-06T01:40:31.376Z,14.63
2023-10-06T01:45:37.095Z,14.61
2023-10-06T01:50:41.753Z,14.56
2023-10-06T01:55:45.402Z,14.48
2023-10-06T02:00:50.128Z,14.42
2023-10-06T02:06:01.433Z,14.39
2023-10-06T02:11:06.520Z,14.40
2023-10-06T02:16:11.314Z,14.37
2023-10-06T02:21:25.613Z,14.33
2023-10-06T02:26:29.109Z,14.29
2023-10-06T02:31:33.937Z,14.22
2023-10-06T02:36:37.663Z,14.14
2023-10-06T02:41:42.022Z,14.08
2023-10-06T02:46:46.031Z,14.10
2023-10-06T02:51:49.651Z,14.10
2023-10-06T02:56:56.873Z,14.08
2023-10-06T03:02:10.467Z,14.04
2023-10-06T03:07:16.999Z,13.97
2023-10-06T03:12:20.903Z,13.88
2023-10-06T03:17:25.442Z,13.82
2023-10-06T03:22:30.121Z,13.80
2023-10-06T03:27:33.875Z,13.79
2023-10-06T03:32:41.237Z,13.85
2023-10-06T03:37:55.215Z,13.81
2023-10-06T03:43:07.484Z,13.73
2023-10-06T03:48:13.888Z,13.67
2023-10-06T03:53:19.252Z,13.61
2023-10-06T03:58:27.590Z,13.55
2023-10-06T04:03:31.851Z,13.47
2023-10-06T04:08:35.720Z,13.39
2023-10-06T04:13:40.653Z,13.35
2023-10-06T04:18:49.706Z,13.33
2023-10-06T04:23:55.350Z,13.28
2023-10-06T04:29:01.323Z,13.23
2023-10-06T04:34:06.599Z,13.19
2023-10-06T04:39:18.442Z,13.13
2023-10-06T04:44:22.060Z,13.05
2023-10-06T04:49:25.577Z,12.97
2023-10-06T04:54:31.040Z,12.91
2023-10-06T04:59:35.270Z,12.85
2023-10-06T05:04:39.119Z,12.77
2023-10-06T05:09:43.031Z,12.68
2023-10-06T05:14:47.981Z,12.61
2023-10-06T05:19:52.146Z,12.61
2023-10-06T05:24:56.099Z,12.59
2023-10-06T05:30:00.542Z,12.65
2023-10-06T05:35:05.860Z,12.72
2023-10-06T05:40:13.732Z,12.76
2023-10-06T05:45:23.274Z,12.76
2023-10-06T05:50:30.301Z,12.79
2023-10-06T05:55:39.638Z,12.79
2023-10-06T06:00:54.028Z,12.81
2023-10-06T06:06:11.775Z,12.92
2023-10-06T06:11:18.223Z,13.03
2023-10-06T06:16:23.352Z,13.10
2023-10-06T06:21:27.854Z,13.13
2023-10-06T06:26:33.513Z,13.20
2023-10-06T06:31:38.624Z,13.27
2023-10-06T06:36:42.800Z,13.32
2023-10-06T06:41:47.337Z,13.41
2023-10-06T06:46:56.745Z,13.46
2023-10-06T06:52:00.699Z,13.54
2023-10-06T06:57:04.664Z,13.59
2023-10-06T07:02:08.426Z,13.67
2023-10-06T07:07:11.991Z,13.70
2023-10-06T07:12:16.084Z,13.70
2023-10-06T07:17:20.517Z,13.69
2023-10-06T07:22:28.267Z,13.82
2023-10-06T07:27:36.234Z,13.95
2023-10-06T07:32:43.240Z,14.09
2023-10-06T07:37:49.504Z,14.12
2023-10-06T07:42:53.794Z,14.16
2023-10-06T07:47:57.372Z,14.25
2023-10-06T07:53:02.535Z,14.21
2023-10-06T07:58:09.774Z,14.25
2023-10-06T08:03:14.268Z,14.33
2023-10-06T08:08:18.472Z,14.43
2023-10-06T08:13:22.632Z,14.58
2023-10-06T08:18:29.669Z,14.69
2023-10-06T08:23:39.093Z,14.79
2023-10-06T08:28:44.072Z,14.87
2023-10-06T08:33:48.319Z,14.93
2023-10-06T08:38:53.061Z,14.98
2023-10-06T08:44:04.613Z,15.05
2023-10-06T08:49:09.682Z,15.08
2023-10-06T08:54:15.505Z,15.13
2023-10-06T08:59:20.668Z,15.20
2023-10-06T09:04:24.159Z,15.38
2023-10-06T09:09:28.271Z,15.48
2023-10-06T09:14:33.146Z,15.54
2023-10-06T09:19:51.549Z,15.57
2023-10-06T09:25:02.852Z,15.58
2023-10-06T09:30:14.048Z,15.53
2023-10-06T09:35:25.944Z,15.53
2023-10-06T09:40:33.834Z,15.60
2023-10-06T09:45:39.297Z,15.68
2023-10-06T09:50:45.788Z,15.76
2023-10-06T09:55:52.283Z,15.96
2023-10-06T10:00:56.819Z,16.14
2023-10-06T10:06:02.683Z,16.35
2023-10-06T10:11:30.777Z,16.53
2023-10-06T10:16:53.821Z,16.68
2023-10-06T10:22:00.120Z,16.91
2023-10-06T10:27:18.465Z,17.06
2023-10-06T10:32:27.540Z,17.28
2023-10-06T10:37:33.338Z,17.53
2023-10-06T10:42:42.430Z,17.66
2023-10-06T10:47:47.758Z,17.82
2023-10-06T10:52:55.573Z,17.88
2023-10-06T10:58:00.155Z,17.93
2023-10-06T11:03:05.056Z,18.00
2023-10-06T11:08:08.670Z,17.87
2023-10-06T11:13:21.402Z,17.78
2023-10-06T11:18:24.939Z,17.71
2023-10-06T11:23:43.562Z,17.64
2023-10-06T11:28:47.684Z,17.60
2023-10-06T11:33:52.528Z,17.66
2023-10-06T11:38:56.871Z,17.75
2023-10-06T11:44:01.627Z,17.85
2023-10-06T11:49:13.624Z,18.01
2023-10-06T11:54:18.106Z,18.23
2023-10-06T11:59:23.847Z,18.43
2023-10-06T12:04:32.103Z,18.67
2023-10-06T12:09:36.317Z,18.69
2023-10-06T12:14:39.890Z,18.53
2023-10-06T12:19:46.493Z,18.43
2023-10-06T12:24:51.349Z,18.34
2023-10-06T12:29:57.615Z,18.29
2023-10-06T12:35:07.434Z,18.35
2023-10-06T12:40:15.345Z,18.30
2023-10-06T12:45:22.321Z,18.24
2023-10-06T12:50:29.827Z,18.23
2023-10-06T12:55:33.534Z,18.25
2023-10-06T13:00:37.338Z,18.44
2023-10-06T13:05:42.295Z,18.59
2023-10-06T13:10:46.642Z,18.67
2023-10-06T13:15:51.202Z,18.82
2023-10-06T13:20:56.031Z,18.86
2023-10-06T13:26:00.183Z,18.77
2023-10-06T13:31:06.021Z,18.67
2023-10-06T13:36:10.526Z,18.61
2023-10-06T13:41:14.105Z,18.53
2023-10-06T13:46:19.053Z,18.42
2023-10-06T13:51:22.966Z,18.37
2023-10-06T13:56:26.591Z,18.32
2023-10-06T14:01:30.189Z,18.24
2023-10-06T14:06:33.927Z,18.20
2023-10-06T14:11:38.509Z,18.18
2023-10-06T14:16:42.118Z,18.17
2023-10-06T14:21:46.168Z,18.15
2023-10-06T14:26:50.359Z,18.10
2023-10-06T14:32:14.865Z,18.01
2023-10-06T14:37:38.165Z,17.95
2023-10-06T14:43:00.344Z,17.94
2023-10-06T14:48:06.082Z,17.93
2023-10-06T14:53:12.011Z,17.90
2023-10-06T14:58:15.640Z,17.86
2023-10-06T15:03:20.301Z,17.84
2023-10-06T15:08:25.181Z,17.89
2023-10-06T15:13:29.462Z,17.91
2023-10-06T15:18:32.932Z,17.86
2023-10-06T15:23:36.901Z,17.83
2023-10-06T15:28:40.749Z,17.78
2023-10-06T15:33:45.643Z,17.71
2023-10-06T15:38:49.583Z,17.65
2023-10-06T15:43:53.652Z,17.59
2023-10-06T15:49:00.974Z,17.56
2023-10-06T15:54:07.631Z,17.53
2023-10-06T15:59:16.598Z,17.48
2023-10-06T16:04:21.543Z,17.50
2023-10-06T16:09:25.708Z,17.50
2023-10-06T16:14:29.871Z,17.44
2023-10-06T16:19:33.342Z,17.39
2023-10-06T16:24:37.416Z,17.31
2023-10-06T16:29:41.239Z,17.22
2023-10-06T16:34:44.861Z,17.14
2023-10-06T16:39:50.263Z,17.07
2023-10-06T16:44:53.841Z,16.95
2023-10-06T16:49:57.422Z,16.88
2023-10-06T16:55:02.217Z,16.87
2023-10-06T17:00:11.445Z,16.75
2023-10-06T17:05:15.750Z,16.54
2023-10-06T17:10:21.202Z,16.39
2023-10-06T17:15:25.281Z,16.38
2023-10-06T17:20:29.104Z,16.41
2023-10-06T17:25:33.948Z,16.36
2023-10-06T17:30:38.440Z,16.29
2023-10-06T17:35:42.805Z,16.25
2023-10-06T17:40:46.529Z,16.54
2023-10-06T17:45:50.703Z,16.55
2023-10-06T17:50:55.220Z,16.42
2023-10-06T17:56:02.420Z,16.34
2023-10-06T18:01:08.456Z,16.28
2023-10-06T18:06:13.426Z,16.24
2023-10-06T18:11:17.050Z,16.21
2023-10-06T18:16:21.924Z,16.20
2023-10-06T18:21:25.308Z,16.14
2023-10-06T18:26:29.459Z,16.10
2023-10-06T18:31:33.957Z,16.11
2023-10-06T18:36:37.714Z,16.09
2023-10-06T18:41:42.684Z,16.04
2023-10-06T18:46:47.919Z,16.02
2023-10-06T18:51:52.365Z,15.99
2023-10-06T18:56:57.545Z,15.95
2023-10-06T19:02:01.252Z,15.91
2023-10-06T19:07:05.361Z,15.87
2023-10-06T19:12:08.912Z,15.83
2023-10-06T19:17:13.073Z,15.81
2023-10-06T19:22:18.419Z,15.83
2023-10-06T19:27:22.666Z,15.81
2023-10-06T19:32:26.434Z,15.78
2023-10-06T19:37:30.985Z,15.86
2023-10-06T19:42:38.110Z,15.84
2023-10-06T19:47:41.784Z,15.79
2023-10-06T19:52:45.662Z,15.75
2023-10-06T19:57:49.321Z,15.70
2023-10-06T20:02:53.350Z,15.66
2023-10-06T20:07:58.088Z,15.62
2023-10-06T20:13:02.712Z,15.58
2023-10-06T20:18:07.874Z,15.56
2023-10-06T20:23:12.747Z,15.52
2023-10-06T20:28:16.553Z,15.50
2023-10-06T20:33:21.675Z,15.47
2023-10-06T20:38:26.584Z,15.44
2023-10-06T20:43:30.822Z,15.43
2023-10-06T20:48:36.474Z,15.41
2023-10-06T20:53:40.201Z,15.37
2023-10-06T20:58:46.114Z,15.35
2023-10-06T21:03:50.363Z,15.34
2023-10-06T21:08:57.264Z,15.31
2023-10-06T21:14:02.218Z,15.31
2023-10-06T21:19:06.753Z,15.32
2023-10-06T21:24:11.194Z,15.37
2023-10-06T21:29:14.810Z,15.41
2023-10-06T21:34:18.901Z,15.47
2023-10-06T21:39:23.505Z,15.50
2023-10-06T21:44:26.919Z,15.49
2023-10-06T21:49:30.869Z,15.45
2023-10-06T21:54:34.665Z,15.43
2023-10-06T21:59:39.356Z,15.42
2023-10-06T22:04:42.744Z,15.40
2023-10-06T22:09:48.066Z,15.40
2023-10-06T22:14:51.692Z,15.42
2023-10-06T22:19:55.955Z,15.44
2023-10-06T22:25:00.254Z,15.46
2023-10-06T22:30:04.179Z,15.50
2023-10-06T22:35:11.519Z,15.52
2023-10-06T22:40:18.453Z,15.53
2023-10-06T22:45:24.796Z,15.55
2023-10-06T22:50:28.831Z,15.54
2023-10-06T22:55:33.601Z,15.51
2023-10-06T23:00:37.739Z,15.50
2023-10-06T23:05:41.811Z,15.51
2023-10-06T23:10:45.547Z,15.50
2023-10-06T23:15:49.813Z,15.44
2023-10-06T23:20:53.999Z,15.43
2023-10-06T23:25:57.593Z,15.44
2023-10-06T23:31:01.993Z,15.44
2023-10-06T23:36:06.671Z,15.44
2023-10-06T23:41:13.990Z,15.42
2023-10-06T23:46:19.311Z,15.43
2023-10-06T23:51:22.673Z,15.44
2023-10-06T23:56:26.745Z,15.43
